< < Back
Terminal Aerodrome Forecast


Current Version              Previous Versions:   1  2  3  4  5  6  7  8  9  

Terminal Aerodrome Forecast

478
FTUS44 KMOB 290500
TAFPNS
TAF
KPNS 290540Z 2906/3006 14005KT P6SM FEW100 BKN250
     FM291500 16010KT P6SM FEW040 BKN150 BKN250 PROB30 2917/2923 5SM
      TSRA BKN030CB=

Latest METAR

985
SAUS70 KWBC 290800 RRH
MTRPNS
METAR KPNS 290753Z AUTO 05004KT 10SM CLR 24/23 A2997 RMK AO2 SLP151
T02440228


USA.gov is the U.S. government's official web portal to all federal, state and local government web resources and services.